Karlsruhe/Baden, Germany

8:48 AM CET on February 22, 2017 (GMT +0100)
Karlsruhe | | Change Station

Elev 0 ft 49.04 °N, 8.38 °E | Updated 1 minute ago

Overcast
Overcast
50.4 °F
Feels Like 50.4 °F
N
8.7
Wind Variable Wind from SW
Gusts 21.7 mph

Today
High -- | Low -- °F
--% Chance of Precip.
Yesterday
High -- | Low -- °F
Precip. -- in
Pressure 29.98 in
Visibility 6.2 miles
Clouds Mostly Cloudy 3100 ft
Dew Point 48 °F
Humidity 90%
Rainfall 0.01 in
Snow Depth Not available.
7:22 AM 5:58 PM
Waning Crescent, 19% visible
METAR EDSB 220720Z 22013KT 9999 BKN031 11/07 Q1015
Pressure 29.98 in
Visibility 6.2 miles
Clouds Mostly Cloudy 3100 ft
Dew Point 48 °F
Humidity 90%
Rainfall 0.01 in
Snow Depth Not available.
7:22 AM 5:58 PM
Waning Crescent, 19% visible
METAR EDSB 220720Z 22013KT 9999 BKN031 11/07 Q1015

Get Your Daily Forecast Email!

Thanks for signing up!

Be on the lookout for a verification email in your inbox.

You'll start receiving the daily forecast at 8 AM.

×

10-Day Weather Forecast

×

Almanac

Astronomy

Feb. 22, 2017 Rise Set
Actual Time
Civil Twilight
Nautical Twilight
Astronomical Twilight
Moon
Length of Visible Light
Length of Day
Tomorrow will be .
, % of the Moon is Illuminated

Today's Extremes

Country Highs Country Lows

Community

WunderPhotos

Upload Photos

1,962,540 photos uploaded!

WunderBlog® & News

Nearby

Air Quality

  Air Quality AQ Index Pollutant
Not available.

Snow Depth

Station Depth Elevation

Earthquake Activity

City Distance Mag. Time & Date
Minimum magnitude displayed is 2.5.

Coastal Water Temperatures

Place Temperature

Stations

Nearby Weather Stations

Station Location Temp. Windchill Dew Point Humidity Wind Precip. Elev Updated Type